CheckWX is a tool to help pilots better visualize weather data.  It is not intended as a substitute for an official pre-flight weather briefing.

15:17:09 UTC

LQBK TAF
Banja Luka International Airport
Banja Luka, Bosnia and Herzegovina
TAF LQBK 191100Z 1912/2012 05005KT CAVOK TX14/1913Z TN07/2003Z TEMPO 2004/2008 5000 RA BR TEMPO 2008/2012 3000 RA BKN013 OVC027

Nov-19@
12:00 UTC

Nov-19 @ 12:00 UTC

Nov-20@
12:00 UTC

Nov-20 @ 12:00 UTC

TAF LQBK 191100Z 1912/2012 05005KT CAVOK TX14/1913Z TN07/2003Z
Wind
  • 050° at 5 KTS
Cloud Levels
  • No significant clouds

Nov-20@
04:00 UTC

Nov-20 @ 04:00 UTC

Nov-20@
08:00 UTC

Nov-20 @ 08:00 UTC

TEMPO 2004/2008 5000 RA BR

Temporary

Temporary Changes expected for less than half the time period

Conditions
Rain, Mist

Nov-20@
08:00 UTC

Nov-20 @ 08:00 UTC

Nov-20@
12:00 UTC

Nov-20 @ 12:00 UTC

TEMPO 2008/2012 3000 RA BKN013 OVC027

Temporary

Temporary Changes expected for less than half the time period

Conditions
Rain
Cloud Levels
  • Broken at 1,300' AGL
  • Overcast at 2,700' AGL